sensor_id;sensor_type;location;lat;lon;timestamp;pressure;altitude;pressure_sealevel;temperature;humidity
13011;BME280;6786;57.632;11.962;2023-02-12T00:01:07;102254.69;;;18.71;40.69
13011;BME280;6786;57.632;11.962;2023-02-12T00:03:36;102257.38;;;18.71;40.74
13011;BME280;6786;57.632;11.962;2023-02-12T00:06:05;102254.69;;;18.71;40.82
13011;BME280;6786;57.632;11.962;2023-02-12T00:08:35;102254.69;;;18.71;40.79
13011;BME280;6786;57.632;11.962;2023-02-12T00:11:08;102270.78;;;18.71;40.75
13011;BME280;6786;57.632;11.962;2023-02-12T00:13:36;102251.25;;;18.69;40.66
13011;BME280;6786;57.632;11.962;2023-02-12T00:16:06;102256.59;;;18.69;40.72
13011;BME280;6786;57.632;11.962;2023-02-12T00:18:35;102260.06;;;18.71;40.96
13011;BME280;6786;57.632;11.962;2023-02-12T00:21:04;102261.78;;;18.72;40.79
13011;BME280;6786;57.632;11.962;2023-02-12T00:23:37;102260.06;;;18.71;40.65
13011;BME280;6786;57.632;11.962;2023-02-12T00:26:07;102260.06;;;18.71;40.70
13011;BME280;6786;57.632;11.962;2023-02-12T00:28:36;102260.06;;;18.71;40.64
13011;BME280;6786;57.632;11.962;2023-02-12T00:31:05;102221.22;;;18.50;40.76
13011;BME280;6786;57.632;11.962;2023-02-12T00:33:34;102265.41;;;18.71;40.66
13011;BME280;6786;57.632;11.962;2023-02-12T00:36:02;102264.44;;;18.72;40.73
13011;BME280;6786;57.632;11.962;2023-02-12T00:38:31;102260.06;;;18.71;40.68
13011;BME280;6786;57.632;11.962;2023-02-12T00:41:00;102235.09;;;18.56;40.58
13011;BME280;6786;57.632;11.962;2023-02-12T00:43:28;102263.69;;;18.70;40.69
13011;BME280;6786;57.632;11.962;2023-02-12T00:45:56;102264.53;;;18.70;40.73
13011;BME280;6786;57.632;11.962;2023-02-12T00:48:25;102254.88;;;18.68;40.62
13011;BME280;6786;57.632;11.962;2023-02-12T00:50:53;102254.69;;;18.71;40.66
13011;BME280;6786;57.632;11.962;2023-02-12T00:53:21;102253.84;;;18.70;40.62
13011;BME280;6786;57.632;11.962;2023-02-12T00:55:49;102254.69;;;18.71;40.62
13011;BME280;6786;57.632;11.962;2023-02-12T00:58:19;102263.59;;;18.71;40.74
13011;BME280;6786;57.632;11.962;2023-02-12T01:00:47;102261.78;;;18.72;40.57
13011;BME280;6786;57.632;11.962;2023-02-12T01:03:15;102260.06;;;18.71;40.73
13011;BME280;6786;57.632;11.962;2023-02-12T01:05:43;102260.06;;;18.71;40.58
13011;BME280;6786;57.632;11.962;2023-02-12T01:08:12;102228.88;;;18.56;40.68
13011;BME280;6786;57.632;11.962;2023-02-12T01:10:41;102255.56;;;18.71;40.69
13011;BME280;6786;57.632;11.962;2023-02-12T01:13:10;102245.69;;;18.72;40.75
13011;BME280;6786;57.632;11.962;2023-02-12T01:15:40;102246.66;;;18.71;40.63
13011;BME280;6786;57.632;11.962;2023-02-12T01:18:09;102243.97;;;18.71;40.62
13011;BME280;6786;57.632;11.962;2023-02-12T01:20:38;102252.03;;;18.71;40.60
13011;BME280;6786;57.632;11.962;2023-02-12T01:23:07;102259.09;;;18.72;40.60
13011;BME280;6786;57.632;11.962;2023-02-12T01:25:37;102262.72;;;18.71;40.72
13011;BME280;6786;57.632;11.962;2023-02-12T01:28:05;102261.97;;;18.69;40.68
13011;BME280;6786;57.632;11.962;2023-02-12T01:30:33;102272.47;;;18.72;40.63
13011;BME280;6786;57.632;11.962;2023-02-12T01:33:03;102262.63;;;18.72;40.69
13011;BME280;6786;57.632;11.962;2023-02-12T01:35:31;102258.16;;;18.73;40.74
13011;BME280;6786;57.632;11.962;2023-02-12T01:37:59;102251.06;;;18.72;40.65
13011;BME280;6786;57.632;11.962;2023-02-12T01:40:27;102263.50;;;18.73;40.74
13011;BME280;6786;57.632;11.962;2023-02-12T01:42:59;102265.41;;;18.71;40.71
13011;BME280;6786;57.632;11.962;2023-02-12T01:45:49;102263.50;;;18.73;40.72
13011;BME280;6786;57.632;11.962;2023-02-12T01:48:22;102271.66;;;18.71;40.73
13011;BME280;6786;57.632;11.962;2023-02-12T01:50:53;102277.00;;;18.71;40.67
13011;BME280;6786;57.632;11.962;2023-02-12T01:53:24;102264.53;;;18.70;40.66
13011;BME280;6786;57.632;11.962;2023-02-12T01:55:56;102253.00;;;18.70;40.74
13011;BME280;6786;57.632;11.962;2023-02-12T01:58:26;102257.47;;;18.69;40.75
13011;BME280;6786;57.632;11.962;2023-02-12T02:00:55;102214.94;;;18.51;40.58
13011;BME280;6786;57.632;11.962;2023-02-12T02:03:26;102248.56;;;18.69;40.68
13011;BME280;6786;57.632;11.962;2023-02-12T02:05:58;102254.88;;;18.68;40.62
13011;BME280;6786;57.632;11.962;2023-02-12T02:08:28;102254.88;;;18.68;40.67
13011;BME280;6786;57.632;11.962;2023-02-12T02:10:56;102247.63;;;18.70;40.68
13011;BME280;6786;57.632;11.962;2023-02-12T02:13:24;102247.63;;;18.70;40.62
13011;BME280;6786;57.632;11.962;2023-02-12T02:16:15;102234.72;;;18.62;40.61
13011;BME280;6786;57.632;11.962;2023-02-12T02:18:52;102247.63;;;18.70;40.63
13011;BME280;6786;57.632;11.962;2023-02-12T02:21:49;102247.63;;;18.70;40.74
13011;BME280;6786;57.632;11.962;2023-02-12T02:27:37;102255.75;;;18.68;40.74
13011;BME280;6786;57.632;11.962;2023-02-12T02:30:35;102268.19;;;18.69;40.70
13011;BME280;6786;57.632;11.962;2023-02-12T02:33:23;102272.66;;;18.69;40.73
13011;BME280;6786;57.632;11.962;2023-02-12T02:35:59;102261.97;;;18.69;40.62
13011;BME280;6786;57.632;11.962;2023-02-12T02:38:38;102259.28;;;18.69;40.66
13011;BME280;6786;57.632;11.962;2023-02-12T02:41:14;102253.00;;;18.70;40.69
13011;BME280;6786;57.632;11.962;2023-02-12T02:43:46;102254.69;;;18.71;40.76
13011;BME280;6786;57.632;11.962;2023-02-12T02:46:20;102266.38;;;18.70;40.72
13011;BME280;6786;57.632;11.962;2023-02-12T02:48:53;102254.25;;;18.64;40.71
13011;BME280;6786;57.632;11.962;2023-02-12T02:51:25;102274.41;;;18.70;40.57
13011;BME280;6786;57.632;11.962;2023-02-12T02:54:00;102277.00;;;18.71;40.68
13011;BME280;6786;57.632;11.962;2023-02-12T02:56:34;102270.78;;;18.71;40.63
13011;BME280;6786;57.632;11.962;2023-02-12T02:59:06;102270.78;;;18.71;40.64
13011;BME280;6786;57.632;11.962;2023-02-12T03:01:41;102270.00;;;18.69;40.68
13011;BME280;6786;57.632;11.962;2023-02-12T03:04:14;102260.94;;;18.71;40.67
13011;BME280;6786;57.632;11.962;2023-02-12T03:06:47;102267.13;;;18.72;40.65
13011;BME280;6786;57.632;11.962;2023-02-12T03:09:21;102269.91;;;18.70;40.58
13011;BME280;6786;57.632;11.962;2023-02-12T03:11:51;102267.22;;;18.70;40.76
13011;BME280;6786;57.632;11.962;2023-02-12T03:14:25;102266.28;;;18.71;40.70
13011;BME280;6786;57.632;11.962;2023-02-12T03:16:58;102277.00;;;18.71;40.69
13011;BME280;6786;57.632;11.962;2023-02-12T03:19:31;102270.78;;;18.71;40.83
13011;BME280;6786;57.632;11.962;2023-02-12T03:22:05;102270.78;;;18.71;40.79
13011;BME280;6786;57.632;11.962;2023-02-12T03:24:37;102264.53;;;18.70;40.73
13011;BME280;6786;57.632;11.962;2023-02-12T03:27:09;102267.13;;;18.72;40.69
13011;BME280;6786;57.632;11.962;2023-02-12T03:29:38;102248.97;;;18.63;40.71
13011;BME280;6786;57.632;11.962;2023-02-12T03:32:23;102261.78;;;18.72;40.83
13011;BME280;6786;57.632;11.962;2023-02-12T03:34:57;102234.41;;;18.53;40.68
13011;BME280;6786;57.632;11.962;2023-02-12T03:37:31;102277.84;;;18.72;40.75
13011;BME280;6786;57.632;11.962;2023-02-12T03:40:10;102281.47;;;18.71;40.75
13011;BME280;6786;57.632;11.962;2023-02-12T03:42:45;102293.91;;;18.72;40.69
13011;BME280;6786;57.632;11.962;2023-02-12T03:45:20;102293.91;;;18.72;40.74
13011;BME280;6786;57.632;11.962;2023-02-12T03:47:54;102295.66;;;18.73;40.81
13011;BME280;6786;57.632;11.962;2023-02-12T03:50:31;102293.91;;;18.72;40.77
13011;BME280;6786;57.632;11.962;2023-02-12T03:53:01;102297.56;;;18.71;40.77
13011;BME280;6786;57.632;11.962;2023-02-12T03:55:31;102293.91;;;18.72;40.76
13011;BME280;6786;57.632;11.962;2023-02-12T03:58:02;102299.28;;;18.72;40.69
13011;BME280;6786;57.632;11.962;2023-02-12T04:00:36;102306.38;;;18.73;40.77
13011;BME280;6786;57.632;11.962;2023-02-12T04:03:06;102293.91;;;18.72;40.83
13011;BME280;6786;57.632;11.962;2023-02-12T04:05:34;102298.34;;;18.73;40.73
13011;BME280;6786;57.632;11.962;2023-02-12T04:08:05;102309.97;;;18.72;40.87
13011;BME280;6786;57.632;11.962;2023-02-12T04:10:40;102304.63;;;18.72;40.81
13011;BME280;6786;57.632;11.962;2023-02-12T04:13:15;102309.97;;;18.72;40.79
13011;BME280;6786;57.632;11.962;2023-02-12T04:15:56;102304.63;;;18.72;40.74
13011;BME280;6786;57.632;11.962;2023-02-12T04:18:36;102302.03;;;18.70;40.81
13011;BME280;6786;57.632;11.962;2023-02-12T04:21:11;102302.91;;;18.71;40.81
13011;BME280;6786;57.632;11.962;2023-02-12T04:23:48;102301.19;;;18.70;40.82
13011;BME280;6786;57.632;11.962;2023-02-12T04:26:25;102306.56;;;18.70;40.76
13011;BME280;6786;57.632;11.962;2023-02-12T04:29:07;102295.84;;;18.70;40.93
13011;BME280;6786;57.632;11.962;2023-02-12T04:31:43;102295.84;;;18.70;40.88
13011;BME280;6786;57.632;11.962;2023-02-12T04:34:17;102299.28;;;18.72;40.75
13011;BME280;6786;57.632;11.962;2023-02-12T04:36:53;102299.28;;;18.72;40.84
13011;BME280;6786;57.632;11.962;2023-02-12T04:39:26;102299.28;;;18.72;40.91
13011;BME280;6786;57.632;11.962;2023-02-12T04:41:57;102293.91;;;18.72;40.82
13011;BME280;6786;57.632;11.962;2023-02-12T04:44:27;102290.50;;;18.70;40.75
13011;BME280;6786;57.632;11.962;2023-02-12T04:46:56;102292.19;;;18.71;40.87
13011;BME280;6786;57.632;11.962;2023-02-12T04:49:26;102299.28;;;18.72;40.89
13011;BME280;6786;57.632;11.962;2023-02-12T04:51:54;102304.63;;;18.72;40.90
13011;BME280;6786;57.632;11.962;2023-02-12T04:54:22;102302.91;;;18.71;40.85
13011;BME280;6786;57.632;11.962;2023-02-12T04:56:51;102297.56;;;18.71;40.79
13011;BME280;6786;57.632;11.962;2023-02-12T04:59:19;102299.28;;;18.72;40.79
13011;BME280;6786;57.632;11.962;2023-02-12T05:01:47;102292.19;;;18.71;40.92
13011;BME280;6786;57.632;11.962;2023-02-12T05:04:16;102292.19;;;18.71;40.83
13011;BME280;6786;57.632;11.962;2023-02-12T05:06:45;102302.91;;;18.71;40.95
13011;BME280;6786;57.632;11.962;2023-02-12T05:09:15;102297.56;;;18.71;41.15
13011;BME280;6786;57.632;11.962;2023-02-12T05:11:44;102299.28;;;18.72;40.92
13011;BME280;6786;57.632;11.962;2023-02-12T05:14:12;102301.00;;;18.73;41.00
13011;BME280;6786;57.632;11.962;2023-02-12T05:16:40;102301.00;;;18.73;40.87
13011;BME280;6786;57.632;11.962;2023-02-12T05:19:09;102305.50;;;18.72;40.92
13011;BME280;6786;57.632;11.962;2023-02-12T05:21:38;102301.00;;;18.73;40.93
13011;BME280;6786;57.632;11.962;2023-02-12T05:24:07;102296.50;;;18.73;40.79
13011;BME280;6786;57.632;11.962;2023-02-12T05:26:35;102301.00;;;18.73;40.85
13011;BME280;6786;57.632;11.962;2023-02-12T05:29:04;102307.22;;;18.73;40.91
13011;BME280;6786;57.632;11.962;2023-02-12T05:31:32;102299.06;;;18.75;40.81
13011;BME280;6786;57.632;11.962;2023-02-12T05:34:00;102288.38;;;18.75;40.86
13011;BME280;6786;57.632;11.962;2023-02-12T05:36:28;102288.38;;;18.75;40.89
13011;BME280;6786;57.632;11.962;2023-02-12T05:38:57;102242.66;;;18.50;40.89
13011;BME280;6786;57.632;11.962;2023-02-12T05:41:28;102291.13;;;18.73;40.74
13011;BME280;6786;57.632;11.962;2023-02-12T05:44:00;102286.66;;;18.74;40.95
13011;BME280;6786;57.632;11.962;2023-02-12T05:46:29;102274.22;;;18.73;40.96
13011;BME280;6786;57.632;11.962;2023-02-12T05:48:58;102265.41;;;18.71;40.96
13011;BME280;6786;57.632;11.962;2023-02-12T05:51:26;102242.25;;;18.56;40.93
13011;BME280;6786;57.632;11.962;2023-02-12T05:53:56;102263.50;;;18.73;40.70
13011;BME280;6786;57.632;11.962;2023-02-12T05:56:30;102259.88;;;18.74;40.88
13011;BME280;6786;57.632;11.962;2023-02-12T05:59:00;102259.88;;;18.74;40.87
13011;BME280;6786;57.632;11.962;2023-02-12T06:01:30;102265.22;;;18.74;40.93
13011;BME280;6786;57.632;11.962;2023-02-12T06:03:59;102256.59;;;18.69;40.94
13011;BME280;6786;57.632;11.962;2023-02-12T06:06:28;102267.91;;;18.74;40.91
13011;BME280;6786;57.632;11.962;2023-02-12T06:08:57;102271.53;;;18.73;40.95
13011;BME280;6786;57.632;11.962;2023-02-12T06:11:26;102282.16;;;18.74;40.84
13011;BME280;6786;57.632;11.962;2023-02-12T06:13:56;102286.66;;;18.74;40.91
13011;BME280;6786;57.632;11.962;2023-02-12T06:16:26;102292.00;;;18.74;40.88
13011;BME280;6786;57.632;11.962;2023-02-12T06:18:55;102280.41;;;18.73;40.98
13011;BME280;6786;57.632;11.962;2023-02-12T06:21:25;102252.03;;;18.57;41.10
13011;BME280;6786;57.632;11.962;2023-02-12T06:23:54;102272.03;;;18.65;40.97
13011;BME280;6786;57.632;11.962;2023-02-12T06:26:22;102293.72;;;18.75;40.95
13011;BME280;6786;57.632;11.962;2023-02-12T06:28:51;102291.03;;;18.75;40.86
13011;BME280;6786;57.632;11.962;2023-02-12T06:31:23;102295.47;;;18.76;40.96
13011;BME280;6786;57.632;11.962;2023-02-12T06:33:52;102292.78;;;18.76;40.98
13011;BME280;6786;57.632;11.962;2023-02-12T06:36:21;102304.44;;;18.75;40.93
13011;BME280;6786;57.632;11.962;2023-02-12T06:38:49;102305.31;;;18.75;41.02
13011;BME280;6786;57.632;11.962;2023-02-12T06:41:20;102316.91;;;18.76;40.99
13011;BME280;6786;57.632;11.962;2023-02-12T06:43:49;102313.44;;;18.74;40.95
13011;BME280;6786;57.632;11.962;2023-02-12T06:46:17;102225.56;;;18.23;40.91
13011;BME280;6786;57.632;11.962;2023-02-12T06:48:46;102322.25;;;18.76;40.95
13011;BME280;6786;57.632;11.962;2023-02-12T06:51:16;102319.47;;;18.77;40.94
13011;BME280;6786;57.632;11.962;2023-02-12T06:53:47;102320.31;;;18.78;40.88
13011;BME280;6786;57.632;11.962;2023-02-12T06:56:16;102318.59;;;18.77;41.04
13011;BME280;6786;57.632;11.962;2023-02-12T06:58:46;102318.59;;;18.77;40.96
13011;BME280;6786;57.632;11.962;2023-02-12T07:01:16;102314.13;;;18.77;40.94
13011;BME280;6786;57.632;11.962;2023-02-12T07:03:49;102312.38;;;18.76;40.97
13011;BME280;6786;57.632;11.962;2023-02-12T07:06:18;102316.91;;;18.76;40.98
13011;BME280;6786;57.632;11.962;2023-02-12T07:08:46;102318.59;;;18.77;41.01
13011;BME280;6786;57.632;11.962;2023-02-12T07:11:15;102319.47;;;18.77;40.92
13011;BME280;6786;57.632;11.962;2023-02-12T07:13:44;102318.59;;;18.77;40.96
13011;BME280;6786;57.632;11.962;2023-02-12T07:16:13;102318.59;;;18.77;40.98
13011;BME280;6786;57.632;11.962;2023-02-12T07:18:43;102322.25;;;18.76;41.06
13011;BME280;6786;57.632;11.962;2023-02-12T07:21:13;102327.59;;;18.76;40.97
13011;BME280;6786;57.632;11.962;2023-02-12T07:23:45;102317.00;;;18.74;41.04
13011;BME280;6786;57.632;11.962;2023-02-12T07:26:17;102324.94;;;18.76;41.03
13011;BME280;6786;57.632;11.962;2023-02-12T07:28:45;102312.56;;;18.73;41.03
13011;BME280;6786;57.632;11.962;2023-02-12T07:31:15;102318.59;;;18.77;41.04
13011;BME280;6786;57.632;11.962;2023-02-12T07:33:45;102320.31;;;18.78;41.02
13011;BME280;6786;57.632;11.962;2023-02-12T07:36:16;102320.31;;;18.78;41.03
13011;BME280;6786;57.632;11.962;2023-02-12T07:38:44;102323.97;;;18.77;41.08
13011;BME280;6786;57.632;11.962;2023-02-12T07:41:14;102321.28;;;18.77;40.93
13011;BME280;6786;57.632;11.962;2023-02-12T07:43:44;102318.59;;;18.77;41.08
13011;BME280;6786;57.632;11.962;2023-02-12T07:46:16;102312.38;;;18.76;41.08
13011;BME280;6786;57.632;11.962;2023-02-12T07:48:45;102318.78;;;18.74;41.07
13011;BME280;6786;57.632;11.962;2023-02-12T07:51:17;102282.34;;;18.57;41.05
13011;BME280;6786;57.632;11.962;2023-02-12T07:53:46;102320.50;;;18.75;40.97
13011;BME280;6786;57.632;11.962;2023-02-12T07:56:16;102317.72;;;18.76;41.04
13011;BME280;6786;57.632;11.962;2023-02-12T07:58:46;102315.94;;;18.77;41.01
13011;BME280;6786;57.632;11.962;2023-02-12T08:01:17;102322.16;;;18.77;41.02
13011;BME280;6786;57.632;11.962;2023-02-12T08:03:46;102318.59;;;18.77;41.01
13011;BME280;6786;57.632;11.962;2023-02-12T08:06:17;102320.31;;;18.78;41.06
13011;BME280;6786;57.632;11.962;2023-02-12T08:08:46;102320.31;;;18.78;41.09
13011;BME280;6786;57.632;11.962;2023-02-12T08:11:14;102311.34;;;18.79;41.15
13011;BME280;6786;57.632;11.962;2023-02-12T08:13:43;102310.47;;;18.78;41.16
13011;BME280;6786;57.632;11.962;2023-02-12T08:16:14;102301.19;;;18.70;41.16
13011;BME280;6786;57.632;11.962;2023-02-12T08:18:42;102307.88;;;18.77;41.10
13011;BME280;6786;57.632;11.962;2023-02-12T08:21:12;102307.88;;;18.77;41.09
13011;BME280;6786;57.632;11.962;2023-02-12T08:23:42;102307.88;;;18.77;41.16
13011;BME280;6786;57.632;11.962;2023-02-12T08:26:12;102304.25;;;18.78;41.24
13011;BME280;6786;57.632;11.962;2023-02-12T08:28:43;102302.34;;;18.80;41.18
13011;BME280;6786;57.632;11.962;2023-02-12T08:31:14;102296.97;;;18.80;41.14
13011;BME280;6786;57.632;11.962;2023-02-12T08:33:43;102304.06;;;18.81;41.16
13011;BME280;6786;57.632;11.962;2023-02-12T08:36:13;102298.69;;;18.81;41.21
13011;BME280;6786;57.632;11.962;2023-02-12T08:38:44;102233.47;;;18.40;41.32
13011;BME280;6786;57.632;11.962;2023-02-12T08:41:14;102312.97;;;18.81;41.23
13011;BME280;6786;57.632;11.962;2023-02-12T08:43:46;102316.50;;;18.82;41.24
13011;BME280;6786;57.632;11.962;2023-02-12T08:46:16;102313.84;;;18.82;41.30
13011;BME280;6786;57.632;11.962;2023-02-12T08:48:45;102304.94;;;18.81;41.30
13011;BME280;6786;57.632;11.962;2023-02-12T08:51:14;102305.78;;;18.82;41.30
13011;BME280;6786;57.632;11.962;2023-02-12T08:53:46;102267.91;;;18.60;41.24
13011;BME280;6786;57.632;11.962;2023-02-12T08:56:16;102309.31;;;18.82;41.40
13011;BME280;6786;57.632;11.962;2023-02-12T08:58:45;102312.88;;;18.83;41.30
13011;BME280;6786;57.632;11.962;2023-02-12T09:01:15;102311.16;;;18.82;41.33
13011;BME280;6786;57.632;11.962;2023-02-12T09:03:44;102313.84;;;18.82;41.33
13011;BME280;6786;57.632;11.962;2023-02-12T09:06:13;102326.25;;;18.83;41.43
13011;BME280;6786;57.632;11.962;2023-02-12T09:08:43;102330.66;;;18.84;41.42
13011;BME280;6786;57.632;11.962;2023-02-12T09:11:13;102334.31;;;18.83;41.34
13011;BME280;6786;57.632;11.962;2023-02-12T09:13:44;102316.91;;;18.76;41.39
13011;BME280;6786;57.632;11.962;2023-02-12T09:16:13;102334.31;;;18.83;41.44
13011;BME280;6786;57.632;11.962;2023-02-12T09:18:41;102333.44;;;18.82;41.49
13011;BME280;6786;57.632;11.962;2023-02-12T09:21:13;102332.59;;;18.82;41.41
13011;BME280;6786;57.632;11.962;2023-02-12T09:23:44;102339.66;;;18.83;41.36
13011;BME280;6786;57.632;11.962;2023-02-12T09:26:14;102337.94;;;18.82;41.40
13011;BME280;6786;57.632;11.962;2023-02-12T09:28:42;102348.66;;;18.82;41.33
13011;BME280;6786;57.632;11.962;2023-02-12T09:31:12;102343.31;;;18.82;41.42
13011;BME280;6786;57.632;11.962;2023-02-12T09:33:41;102351.34;;;18.82;41.41
13011;BME280;6786;57.632;11.962;2023-02-12T09:36:11;102337.94;;;18.82;41.47
13011;BME280;6786;57.632;11.962;2023-02-12T09:38:40;102334.50;;;18.80;41.47
13011;BME280;6786;57.632;11.962;2023-02-12T09:41:33;102341.38;;;18.84;41.73
13011;BME280;6786;57.632;11.962;2023-02-12T09:44:05;102339.66;;;18.83;41.38
13011;BME280;6786;57.632;11.962;2023-02-12T09:46:41;102329.81;;;18.83;41.50
13011;BME280;6786;57.632;11.962;2023-02-12T09:49:20;102341.38;;;18.84;41.53
13011;BME280;6786;57.632;11.962;2023-02-12T09:51:54;102346.72;;;18.84;41.48
13011;BME280;6786;57.632;11.962;2023-02-12T09:54:25;102333.44;;;18.82;41.56
13011;BME280;6786;57.632;11.962;2023-02-12T09:57:00;102346.06;;;18.80;41.61
13011;BME280;6786;57.632;11.962;2023-02-12T09:59:33;102352.28;;;18.81;41.49
13011;BME280;6786;57.632;11.962;2023-02-12T10:02:05;102348.66;;;18.82;41.65
13011;BME280;6786;57.632;11.962;2023-02-12T10:04:38;102354.03;;;18.82;41.52
13011;BME280;6786;57.632;11.962;2023-02-12T10:07:35;102232.72;;;18.08;41.77
13011;BME280;6786;57.632;11.962;2023-02-12T10:10:20;102351.91;;;18.87;42.23
13011;BME280;6786;57.632;11.962;2023-02-12T10:12:59;102367.69;;;18.91;41.88
13011;BME280;6786;57.632;11.962;2023-02-12T10:15:36;102353.47;;;18.91;41.72
13011;BME280;6786;57.632;11.962;2023-02-12T10:21:10;102329.69;;;18.71;41.76
13011;BME280;6786;57.632;11.962;2023-02-12T10:23:59;102360.91;;;18.86;41.95
13011;BME280;6786;57.632;11.962;2023-02-12T10:26:32;102314.38;;;18.59;41.74
13011;BME280;6786;57.632;11.962;2023-02-12T10:29:11;102356.59;;;18.83;41.96
13011;BME280;6786;57.632;11.962;2023-02-12T10:31:41;102341.38;;;18.84;41.66
13011;BME280;6786;57.632;11.962;2023-02-12T10:34:15;102357.44;;;18.84;41.68
13011;BME280;6786;57.632;11.962;2023-02-12T10:36:46;102350.38;;;18.83;41.67
13011;BME280;6786;57.632;11.962;2023-02-12T10:39:20;102348.66;;;18.82;41.73
13011;BME280;6786;57.632;11.962;2023-02-12T10:41:54;102352.19;;;18.82;41.82
13011;BME280;6786;57.632;11.962;2023-02-12T10:44:24;102330.06;;;18.65;41.79
13011;BME280;6786;57.632;11.962;2023-02-12T10:46:52;102359.38;;;18.82;41.69
13011;BME280;6786;57.632;11.962;2023-02-12T10:49:21;102362.06;;;18.82;41.70
13011;BME280;6786;57.632;11.962;2023-02-12T10:52:03;102349.41;;;18.84;41.90
13011;BME280;6786;57.632;11.962;2023-02-12T10:54:37;102355.91;;;18.80;41.79
13011;BME280;6786;57.632;11.962;2023-02-12T10:57:10;102345.97;;;18.82;41.78
13011;BME280;6786;57.632;11.962;2023-02-12T10:59:41;102331.31;;;18.73;41.88
13011;BME280;6786;57.632;11.962;2023-02-12T11:02:22;102344.16;;;18.82;41.84
13011;BME280;6786;57.632;11.962;2023-02-12T11:04:52;102359.38;;;18.82;41.74
13011;BME280;6786;57.632;11.962;2023-02-12T11:07:21;102357.81;;;18.78;41.73
13011;BME280;6786;57.632;11.962;2023-02-12T11:09:52;102367.41;;;18.82;41.79
13011;BME280;6786;57.632;11.962;2023-02-12T11:12:27;102360.22;;;18.82;41.85
13011;BME280;6786;57.632;11.962;2023-02-12T11:14:59;102354.03;;;18.82;41.69
13011;BME280;6786;57.632;11.962;2023-02-12T11:17:32;102356.69;;;18.82;41.69
13011;BME280;6786;57.632;11.962;2023-02-12T11:20:23;102350.38;;;18.83;42.14
13011;BME280;6786;57.632;11.962;2023-02-12T11:22:53;102351.34;;;18.82;41.80
13011;BME280;6786;57.632;11.962;2023-02-12T11:25:23;102361.09;;;18.83;41.74
13011;BME280;6786;57.632;11.962;2023-02-12T11:28:00;102353.06;;;18.83;41.94
13011;BME280;6786;57.632;11.962;2023-02-12T11:30:30;102352.88;;;18.86;41.76
13011;BME280;6786;57.632;11.962;2023-02-12T11:33:18;102357.94;;;18.90;42.63
13011;BME280;6786;57.632;11.962;2023-02-12T11:35:53;102356.22;;;18.89;41.93
13011;BME280;6786;57.632;11.962;2023-02-12T11:38:26;102350.88;;;18.89;41.75
13011;BME280;6786;57.632;11.962;2023-02-12T11:40:57;102349.13;;;18.88;41.87
13011;BME280;6786;57.632;11.962;2023-02-12T11:43:27;102349.22;;;18.87;41.86
13011;BME280;6786;57.632;11.962;2023-02-12T11:45:59;102362.63;;;18.87;41.90
13011;BME280;6786;57.632;11.962;2023-02-12T11:48:30;102355.53;;;18.86;41.79
13011;BME280;6786;57.632;11.962;2023-02-12T11:51:02;102346.91;;;18.81;41.74
13011;BME280;6786;57.632;11.962;2023-02-12T11:53:33;102355.53;;;18.86;41.90
13011;BME280;6786;57.632;11.962;2023-02-12T11:56:04;102353.84;;;18.85;41.89
13011;BME280;6786;57.632;11.962;2023-02-12T11:58:32;102280.69;;;18.41;41.91
13011;BME280;6786;57.632;11.962;2023-02-12T12:01:10;102353.84;;;18.85;41.97
13011;BME280;6786;57.632;11.962;2023-02-12T12:03:44;102352.09;;;18.84;41.93
13011;BME280;6786;57.632;11.962;2023-02-12T12:06:23;102338.78;;;18.82;41.94
13011;BME280;6786;57.632;11.962;2023-02-12T12:08:56;102336.00;;;18.84;41.83
13011;BME280;6786;57.632;11.962;2023-02-12T12:11:36;102340.53;;;18.83;41.92
13011;BME280;6786;57.632;11.962;2023-02-12T12:14:11;102345.88;;;18.83;41.78
13011;BME280;6786;57.632;11.962;2023-02-12T12:16:48;102348.66;;;18.82;41.93
13011;BME280;6786;57.632;11.962;2023-02-12T12:19:41;102348.66;;;18.82;41.95
13011;BME280;6786;57.632;11.962;2023-02-12T12:22:41;102338.78;;;18.82;42.09
13011;BME280;6786;57.632;11.962;2023-02-12T12:25:21;102342.34;;;18.83;41.99
13011;BME280;6786;57.632;11.962;2023-02-12T12:27:57;102341.38;;;18.84;41.93
13011;BME280;6786;57.632;11.962;2023-02-12T12:30:42;102300.16;;;18.58;41.82
13011;BME280;6786;57.632;11.962;2023-02-12T12:33:16;102341.38;;;18.84;41.88
13011;BME280;6786;57.632;11.962;2023-02-12T12:35:57;102339.47;;;18.86;41.93
13011;BME280;6786;57.632;11.962;2023-02-12T12:38:36;102302.13;;;18.69;42.02
13011;BME280;6786;57.632;11.962;2023-02-12T12:41:15;102335.34;;;18.94;41.90
13011;BME280;6786;57.632;11.962;2023-02-12T12:43:58;102347.16;;;19.06;41.85
13011;BME280;6786;57.632;11.962;2023-02-12T12:46:43;102349.53;;;19.10;41.79
13011;BME280;6786;57.632;11.962;2023-02-12T12:49:36;102345.69;;;19.14;41.96
13011;BME280;6786;57.632;11.962;2023-02-12T12:52:33;102350.88;;;19.17;41.74
13011;BME280;6786;57.632;11.962;2023-02-12T12:55:23;102345.50;;;19.17;41.99
13011;BME280;6786;57.632;11.962;2023-02-12T12:58:06;102344.63;;;19.17;41.69
13011;BME280;6786;57.632;11.962;2023-02-12T13:00:47;102341.19;;;19.15;41.84
13011;BME280;6786;57.632;11.962;2023-02-12T13:03:38;102346.75;;;19.12;41.98
13011;BME280;6786;57.632;11.962;2023-02-12T13:06:37;102352.13;;;19.12;41.96
13011;BME280;6786;57.632;11.962;2023-02-12T13:09:34;102351.34;;;19.10;42.06
13011;BME280;6786;57.632;11.962;2023-02-12T13:12:42;102353.16;;;19.09;41.96
13011;BME280;6786;57.632;11.962;2023-02-12T13:15:20;102345.22;;;19.08;41.74
13011;BME280;6786;57.632;11.962;2023-02-12T13:17:58;102348.00;;;19.06;41.70
13011;BME280;6786;57.632;11.962;2023-02-12T13:20:37;102344.38;;;19.07;41.82
13011;BME280;6786;57.632;11.962;2023-02-12T13:23:13;102350.56;;;19.08;41.88
13011;BME280;6786;57.632;11.962;2023-02-12T13:25:48;102335.25;;;18.96;41.81